Soaring Guidance
Issued by NWS Reno, NV

Home | Current Version | Previous Version | Text Only | Print | Product List | Glossary On
Versions: 1 2 3 4 5 6 7 8 9 10 11 12 13 14 15 16
000
UXUS97 KREV 281348
SRGREV

SOARING FORECAST
NATIONAL WEATHER SERVICE - RENO NV
700 AM PDT SAT MAR 28 2015

THIS SOARING FORECAST IS FOR THE EASTERN SIERRA AND WESTERN NEVADA
WITH SPECIFIC INDICES FOR THE GREATER RENO AREA.

THIS FORECAST IS NOT UPDATED.

FOR CURRENT FLIGHT CONDITIONS...FORECASTS...AND ADVISORIES...ACCESS
YOUR LOCAL BRIEFING OUTLET OR FLIGHT SERVICE STATION.

*******************************************************************
LOCAL INDICES FOR RENO:                   TODAY     YESTERDAY
MAXIMUM TEMPERATURE AT RENO...(DEG F)...     74
TRIGGER TEMPERATURE...........(DEG F)...     60          67
   EXCEEDED YESTERDAY BY 19Z
MAXIMUM ALTITUDE..............(FT MSL)..  14600       13900
SOARING INDEX.................(FPM).....    798         747
FORECASTED K-INDEX.........VALID 18Z....      1          10
FORECASTED K-INDEX.........VALID 00Z....     13          16
FORECASTED LIFTED INDEX....VALID 18Z....      5           6
FORECASTED LIFTED INDEX....VALID 00Z....      3           3

AFTERNOON WINDS ALOFT FORECAST
MSL (FT) WIND/TEMP
9000  9900/+05
10000 9903/+03
12000 2810/-01
14000 2612/-06
16000 2614/-11
18000 2620/-17
24000 2537/-29
30000 2351/-47
34000 2352/-50
39000 2462/-47

SLIDE MOUNTAIN DATA:
 SLD HR 1240 M 34/18/2621/M  /SLIDE MTN UNOFFICIAL OBSERVATION

RENO TAF FORECAST:
KRNO 281125Z 2812/2912 29006KT P6SM SCT200
     FM281600 VRB04KT P6SM SCT200
     FM282100 03009KT P6SM FEW120 SCT200
     FM290400 VRB04KT P6SM SCT200

CARSON CITY TAF FORECAST:
KCXP 281125Z 2812/2912 VRB03KT P6SM SCT200
     FM282000 08009KT P6SM FEW120 SCT200
     FM290400 VRB04KT P6SM SCT200

OUTLOOK FOR THE RENO-CARSON CITY-MINDEN AREA:
.SUNDAY...SUNNY IN THE MORNING THEN BECOMING PARTLY CLOUDY. HIGHS
68 TO 78. LIGHT WINDS.

SUNRISE AND SUNSET
MARCH 28 2015.........SUNRISE   650 AM PDT   SUNSET   719 PM PDT
MARCH 29 2015.........SUNRISE   648 AM PDT   SUNSET   720 PM PDT



THIS PRODUCT IS ROUTINELY PREPARED BY 700 AM AND IS
DISTRIBUTED TO THE RENO FLIGHT SERVICE STATION AS WELL AS THE
NATIONAL WEATHER SERVICE WORLD WIDE WEB HOMEPAGE AT:
       HTTP://WWW.WEATHER.GOV/RENO





USA.gov is the U.S. government's official web portal to all federal, state and local government web resources and services.